My Meet Scores
Haley Tyson, Phenom Gymnastics - MyMeetScores.com
Top100 | Top Teams | Upcoming Meets | Completed Meets | Latest | Add Scores | Help| Support | Bookmark and Share

Haley Tyson, Phenom Gymnastics
Personal Bests
LevelVault BarsBeamFloorAA
49.6759.500 9.7009.52538.250
59.1009.450 9.4009.37536.850
79.8009.800 9.6259.47538.125
89.6759.550 9.6009.47537.950
99.8009.750 9.6009.62538.225
109.8759.650 9.7009.80038.850
OP9.6008.650 9.5009.72537.475
Scores on America's Top 100as of 05.24.2019
Year Level Vault Bars Beam Floor AA
2014 79.8009.800
2015 89.675
2015 99.750
2016 99.8009.750, 9.6509.60038.225, 38.150
2017 109.700
2019 109.8759.80038.850

Click here to view our
exclusive Top 100 Collection

Click here to view our
exclusive Top 100 Collection
Meet Scores
Date Meet Team Session Level Division Vault Bars Beam Floor AA
2019-05-17 2019 Women's JO National Championships Phenom Gymnastics 1S 10 Senior A 9.525 8 9.500 6T 9.300 18T 9.375 20T 37.700 8
2019-04-11 Region 5 9/10 Championships Phenom Gymnastics 01 10 Sr A 9.725 1 9.550 4T 9.475 3 9.425 5 38.175 1
2019-03-15 Illinois State Championship Level 6,9,10 Phenom Gymnastics 3 10 Sr A 9.775 1 9.650 1 9.150 7T 9.675 1 38.250 2
2019-03-01 NGCD Academy's 2019 Flip'r Invitational Phenom Gymnastics 7 10 Sr B 9.875 1 9.600 1 9.625 1 9.750 2 38.850 1
2019-02-23 Kinetic Classic 2019 Phenom Gymnastics 1 10 Older 9.825 1 8.875 333T 9.225 148T 9.450 34T 37.375 22T
2019-02-15 Presidential Classic Phenom Gymnastics R8 OP OP R8 g3 9.600 3 8.650 9 9.500 2 9.725 2 37.475 2
2019-01-25 King Arthur Invitational Phenom Gymnastics 2 10 SR A 9.475 3 8.925 7 9.300 3 9.575 4 37.275 4
2019-01-18 2019 Bravo Classic Phenom Gymnastics 7A 10 Jr 9.775 1 9.575 1 9.450 1 9.800 2 38.600 1
2018-12-14 2018 Aspire Classic Phenom Gymnastics 7B 10 Older 9.775 2 9.500 2 9.400 4 9.550 2 38.225 2
2018-05-12 2018 JO Nationals Phenom Gymnastics 5J 10 Junior E 9.600 9T 9.475 13T 9.475 16T 9.600 1T 38.150 4
2018-04-12 2018 Region 5 Levels 9/10 Championships Phenom Gymnastics 02 10 Jr E 9.575 3T 9.400 3 9.225 11 9.650 2T 37.850 3
2018-03-16 2018 Illinois Level 6, 9, 10 State Championships Phenom Gymnastics 01 10 Jr C 9.725 2 9.525 1 9.250 3 9.625 1 38.125 1T
2018-03-02 2018 Flip'r Invitational Phenom Gymnastics 8 10 Sr 9.650 3 9.275 3 9.600 1 9.600 1 38.125 1
2018-02-23 Kinetic Classic Phenom Gymnastics 3 10 Older 9.750 1 9.375 5T 9.650 1 9.325 2T 38.100 1
2018-02-16 2018 Magical Classic Phenom Gymnastics A9 10 Group 2 9.475 2 9.475 2 9.075 9 9.600 4 37.625 2
2017-05-04 2017 Women's JO National Championships Phenom Gymnastics 3J 10 Junior C 9.475 18T 9.475 7T 9.425 7T 9.400 9T 37.775 4
2017-04-06 2017 Region 5 Level 9 & 10 Championships Phenom Gymnastics 3 10 JR C 9.450 5T 9.400 3 9.525 3 9.500 4T 37.875 2
2017-03-16 2017 Illinois Level 8, 9 & 10 State Meet Phenom Gymnastics All 10 Jr A 9.600 2 8.775 9T 9.375 3 9.325 4T 37.075 3
2017-02-24 Kinetic Classic Phenom Gymnastics 3 10 All Ages 9.275 2 9.400 1 9.700 1 9.425 5 37.800 1
2017-02-17 Big Classic Phenom Gymnastics A 10 Senior A 9.375 4 8.725 3 9.075 4T 9.200 4 36.375 2
2017-01-20 2017 Bravo Classic Phenom Gymnastics 08A 10 8-14yrs 9.700 1 9.300 1 8.475 9 9.050 6T 36.525 3
2016-12-16 2016 Aspire Classic Phenom Gymnastics 8 10 Younger 9.625 2 9.350 2 9.400 1 9.175 2 37.550 2
2016-04-29 2016 Level 9 Eastern Championships Phenom Gymnastics 2 9 Junior 4 9.500 4T 8.925 19T 9.550 2T 9.350 15* 37.325 5T
2016-04-08 2016 Region 5 Levels 9-10 Championships Phenom Gymnastics 9 Junior 4 9.700 2 9.400 13 9.500 4 9.625 2 38.225 2
2016-03-18 2016 Illinois Level 8, 9, 10 State Championships Phenom Gymnastics 01 9 9 JrB 9.700 1 9.650 1 8.825 14 9.350 2 37.525 2
2016-02-20 Big Classic Phenom Gymnastics 2A 9 Senior B 9.800 1 9.750 1 9.425 2 9.175 4 38.150 1
2016-01-22 King Arthur Invitational Phenom Gymnastics S3 9 Jr.B 9.550 2 9.600 3 8.625 13 9.450 2 37.225 3
2016-01-15 2016 Bravo Classic Phenom Gymnastics 4B 9 8-13yrs 9.600 1 9.500 1T 9.600 1 9.100 6 37.800 1
2015-12-18 2015 Aspire Classic Phenom Gymnastics 7 9 Middle 9.600 1 9.750 1 9.500 1 8.750 8 37.600 1
2015-04-24 2015 Region 5 Level 8 Championship Team Illinois 10 8 JR C1 9.675 2 9.425 8T 9.375 10T 9.475 2 37.950 2T
2015-04-18 Patriotic Meet American Institute of Gymnastics 5 8 All 9.400 1 9.375 1 9.600 1 9.475 1 37.850 1
2015-03-27 2015 Illinois Level 8,9,10 State Championships American Institute of Gymnastics 7 8 JrC 9.450 1 9.025 14 9.075 15 9.350 10 36.900 8
2015-03-05 Spring Hill Elgin Invitational American Institute of Gymnastics 8A 8 SR 9.425 3 9.550 1 9.350 4T 9.300 12T 37.625 1
2015-02-13 IGI Chicago Style Gymnastics Meet American Institute of Gymnastics 432 8 12 & young 9.500 1 9.150 4 9.275 5T 9.175 9 37.100 3
2015-01-30 Circle Of Stars Gymnastics Invitational American Institute of Gymnastics 3 8 12 9.275 3 9.100 5 9.100 5 9.250 3 36.725 4
2014-03-28 2014 Illinois Level 6, 7 State American Institute of Gymnastics 3 7 JrD 9.800 1 9.550 6 9.300 12 9.475 13 38.125 5
2014-03-08 March To Madison American Institute of Gymnastics 3 7 Youth 11 9.750 1 9.375 1 9.275 3 9.400 5T 37.800 1
2014-02-21 EGGS Invite American Institute of Gymnastics 4 7 7-11yrs 9.450 3T 8.800 4 9.625 1 9.450 2 37.325 1T
2014-02-07 IGI Chicago Style Gymnastics Meet American Institute of Gymnastics 133 7 11 & Under 9.225 8 9.800 1 9.375 5T 9.475 5 37.875 1
2013-03-15 2013 Illinois Level 6, 7 State Meet American Institute of Gymnastics 9 7 Jr.B 9.400 17 9.025 19 9.375 9 9.075 28 36.875 15
2013-03-01 Spring Hill Elgin Invitational American Institute of Gymnastics 1 7 Jr.A 9.025 5 9.000 4 8.700 10 9.225 9 35.950 7
2013-02-23 EGGS Invite American Institute of Gymnastics 7 7-12 9.325 4 9.100 4 8.850 3 9.200 4 36.475 3
2013-02-08 IGI Chicago Style Gymnastics Meet American Institute of Gymnastics 122 7 11 & Under 9.525 4 8.850 17T 8.650 24 8.675 24 35.700 20
2013-01-12 St. Jude Benefit Meet American Institute of Gymnastics GymB 7 10 9.200 4 9.200 4 8.900 6 9.200 6 36.500 4
2012-11-30 Ultimate Wish Classic 2012 American Institute of Gymnastics 7 L7 Jr S1 9.200 7 9.125 7 8.825 13 9.250 5 36.400 5
2012-03-30 2012 Illinois Level 5 State Meet American Institute of Gymnastics 3 5 YouthB 9.100 7 9.125 12 8.875 21 9.225 6 36.325 10
2012-03-09 Flip r Invite American Institute of Gymnastics 5 9 9.050 6 9.450 2 9.200 5 9.150 9 36.850 3
2012-02-25 Midwest Open 2012 American Institute of Gymnastics 3A 5 Lvl 5: 9 9.050 6 9.150 6 8.650 18 9.375 8 36.225 12
2012-02-10 IGI Chicago Style Gymnastics American Institute of Gymnastics 612 5 9 & Under 8.700 11 9.000 14 9.400 6T 9.225 8T 36.325 11
2012-01-27 Wisconsin Dell's Gymnastics Vaction Classic American Institute of Gymnastics 8DE 5 9a yr olds 8.425 8T 8.750 2T 9.350 5 9.350 2T 35.875 4
2012-01-06 2012 St. Jude Invite American Institute of Gymnastics 3B 5 Child B 8.750 3 9.000 5 8.750 4 9.000 2 35.500 2
2011-12-02 2011 Ultimate Wish Classic American Institute of Gymnastics 5 5 Jr.B 9.000 3 9.000 8 9.275 3 9.300 4 36.575 2
2011-11-11 2011 Illinois Judges Cup American Institute of Gymnastics 4A 5 9 8.700 3 8.200 16 9.250 4 8.725 6 34.875 4
2011-03-18 2011 Illinois Level 4 State Meet American Institute of Gymnastics 7 4 Youth.B 9.525 3 9.500 3 9.700 1 9.525 2 38.250 2
2011-02-26 Midwest Open American Institute of Gymnastics 5B 4 8 9.425 2 8.750 10 9.050 16 9.150 13 36.375 8
2011-02-11 IGI Chicago Style Gymnastics Meet American Institute of Gymnastics 231 4 8 & Under 9.675 1 9.050 6T 9.400 9T 9.075 8 37.200 3
2011-01-14 St. Jude Benefit Meet American Institute of Gymnastics 12 4 8 8.850 18 9.050 6 9.500 3 9.350 5 36.750 4
2010-12-03 Make a Wish American Institute of Gymnastics 5 4 Age 8 8.900 10T 8.550 17 8.800 8 8.750 15 35.000 13
2010-11-12 North Judges Cup American Institute of Gymnastics 4A 4 8yrs. 9.150 1 8.700 7 8.625 7 8.475 11 34.950 5
Click here to view our personalized
"Celebrate Your Season"
2018-19 Collection

www.lazysuits.com